createdAt,value
2022-11-26T00:01:16.206Z,78.42
2022-11-26T00:06:39.346Z,78.44
2022-11-26T00:11:42.038Z,78.20
2022-11-26T00:16:44.927Z,78.29
2022-11-26T00:21:47.208Z,77.89
2022-11-26T00:26:49.387Z,78.26
2022-11-26T00:31:51.651Z,78.28
2022-11-26T00:36:54.002Z,78.22
2022-11-26T00:41:56.187Z,78.36
2022-11-26T00:46:58.445Z,78.49
2022-11-26T00:52:00.668Z,78.35
2022-11-26T00:57:02.886Z,78.43
2022-11-26T01:02:08.147Z,78.56
2022-11-26T01:07:11.166Z,78.09
2022-11-26T01:12:14.854Z,78.52
2022-11-26T01:17:17.188Z,78.62
2022-11-26T01:22:23.543Z,78.50
2022-11-26T01:27:25.840Z,78.49
2022-11-26T01:32:29.615Z,78.49
2022-11-26T01:37:32.023Z,78.68
2022-11-26T01:42:45.582Z,78.89
2022-11-26T01:47:48.924Z,78.72
2022-11-26T01:52:51.453Z,78.63
2022-11-26T01:57:53.856Z,78.96
2022-11-26T02:02:56.174Z,79.06
2022-11-26T02:07:58.490Z,79.10
2022-11-26T02:13:00.903Z,78.85
2022-11-26T02:18:06.256Z,78.83
2022-11-26T02:23:29.089Z,79.17
2022-11-26T02:29:09.072Z,79.25
2022-11-26T02:34:23.113Z,79.09
2022-11-26T02:39:28.751Z,79.15
2022-11-26T02:44:41.934Z,79.07
2022-11-26T02:49:45.356Z,79.15
2022-11-26T02:54:49.171Z,78.92
2022-11-26T02:59:51.539Z,79.06
2022-11-26T03:04:57.396Z,78.94
2022-11-26T03:10:01.134Z,79.31
2022-11-26T03:15:06.248Z,78.69
2022-11-26T03:20:09.086Z,79.02
2022-11-26T03:25:11.541Z,78.90
2022-11-26T03:30:14.180Z,78.76
2022-11-26T03:35:16.555Z,78.82
2022-11-26T03:40:19.216Z,79.04
2022-11-26T03:45:21.459Z,78.60
2022-11-26T03:50:23.743Z,79.22
2022-11-26T03:55:26.005Z,79.23
2022-11-26T04:00:28.300Z,78.99
2022-11-26T04:05:31.606Z,79.22
2022-11-26T04:10:33.995Z,79.26
2022-11-26T04:15:36.279Z,78.87
2022-11-26T04:20:38.550Z,79.31
2022-11-26T04:25:40.834Z,79.11
2022-11-26T04:30:43.940Z,79.03
2022-11-26T04:35:46.388Z,78.91
2022-11-26T04:40:49.166Z,79.09
2022-11-26T04:45:51.482Z,79.18
2022-11-26T04:50:53.702Z,79.27
2022-11-26T04:55:55.889Z,78.71
2022-11-26T05:00:58.527Z,79.30
2022-11-26T05:06:00.883Z,79.08
2022-11-26T05:11:03.531Z,78.86
2022-11-26T05:16:06.014Z,78.87
2022-11-26T05:21:08.488Z,78.83
2022-11-26T05:26:10.997Z,78.72
2022-11-26T05:31:13.514Z,78.83
2022-11-26T05:36:16.043Z,78.92
2022-11-26T05:41:18.339Z,79.10
2022-11-26T05:46:20.735Z,78.70
2022-11-26T05:51:23.075Z,78.75
2022-11-26T05:56:25.462Z,79.08
2022-11-26T06:01:27.749Z,78.80
2022-11-26T06:06:30.555Z,78.82
2022-11-26T06:11:32.800Z,78.60
2022-11-26T06:16:35.109Z,78.76
2022-11-26T06:21:37.885Z,78.79
2022-11-26T06:26:40.943Z,78.14
2022-11-26T06:31:43.183Z,78.66
2022-11-26T06:36:45.656Z,78.26
2022-11-26T06:41:48.018Z,78.11
2022-11-26T06:46:50.250Z,78.31
2022-11-26T06:51:54.013Z,78.13
2022-11-26T06:56:56.768Z,77.76
2022-11-26T07:01:59.176Z,78.11
2022-11-26T07:07:01.533Z,77.49
2022-11-26T07:12:04.390Z,77.42
2022-11-26T07:17:06.756Z,77.72
2022-11-26T07:22:08.984Z,77.63
2022-11-26T07:27:11.157Z,77.20
2022-11-26T07:32:13.507Z,77.54
2022-11-26T07:37:16.941Z,77.75
2022-11-26T07:42:19.144Z,77.75
2022-11-26T07:47:21.475Z,77.63
2022-11-26T07:52:23.789Z,77.82
2022-11-26T07:57:26.159Z,77.51
2022-11-26T08:02:28.389Z,77.59
2022-11-26T08:07:30.745Z,77.58
2022-11-26T08:12:33.018Z,77.58
2022-11-26T08:17:35.305Z,77.58
2022-11-26T08:22:37.603Z,77.58
2022-11-26T08:27:39.775Z,77.29
2022-11-26T08:32:42.006Z,77.37
2022-11-26T08:37:44.267Z,77.49
2022-11-26T08:42:46.534Z,77.45
2022-11-26T08:47:48.873Z,77.40
2022-11-26T08:52:53.331Z,77.51
2022-11-26T08:57:55.603Z,77.49
2022-11-26T09:02:57.941Z,77.67
2022-11-26T09:08:00.389Z,77.36
2022-11-26T09:13:02.671Z,77.29
2022-11-26T09:18:05.084Z,77.62
2022-11-26T09:23:07.305Z,77.47
2022-11-26T09:28:09.595Z,77.54
2022-11-26T09:33:11.773Z,77.44
2022-11-26T09:38:14.066Z,77.46
2022-11-26T09:43:53.337Z,77.87
2022-11-26T09:48:56.068Z,77.69
2022-11-26T09:53:58.701Z,77.60
2022-11-26T09:59:05.793Z,77.55
2022-11-26T10:04:17.371Z,77.67
2022-11-26T10:09:57.158Z,77.77
2022-11-26T10:15:18.242Z,77.48
2022-11-26T10:20:38.377Z,77.45
2022-11-26T10:25:45.542Z,77.56
2022-11-26T10:30:56.758Z,77.33
2022-11-26T10:35:59.081Z,77.67
2022-11-26T10:41:01.409Z,77.52
2022-11-26T10:46:03.865Z,77.62
2022-11-26T10:51:30.466Z,77.67
2022-11-26T10:56:37.169Z,77.70
2022-11-26T11:01:40.300Z,77.53
2022-11-26T11:06:44.132Z,77.71
2022-11-26T11:11:46.388Z,77.60
2022-11-26T11:16:52.579Z,77.25
2022-11-26T11:21:55.038Z,77.46
2022-11-26T11:27:00.449Z,77.62
2022-11-26T11:32:28.037Z,77.63
2022-11-26T11:37:30.274Z,77.57
2022-11-26T11:42:32.644Z,77.32
2022-11-26T11:47:37.283Z,77.46
2022-11-26T11:52:39.431Z,77.65
2022-11-26T11:58:11.977Z,77.41
2022-11-26T12:03:41.685Z,77.62
2022-11-26T12:09:20.483Z,77.46
2022-11-26T12:15:05.442Z,77.63
2022-11-26T12:20:31.323Z,77.56
2022-11-26T12:25:37.117Z,77.57
2022-11-26T12:31:06.105Z,77.70
2022-11-26T12:36:17.722Z,77.65
2022-11-26T12:41:21.889Z,77.87
2022-11-26T12:46:35.217Z,77.85
2022-11-26T12:51:43.260Z,78.00
2022-11-26T12:57:01.078Z,77.86
2022-11-26T13:02:26.438Z,77.95
2022-11-26T13:07:48.046Z,78.20
2022-11-26T13:13:06.979Z,78.13
2022-11-26T13:18:34.303Z,77.83
2022-11-26T13:24:01.400Z,78.13
2022-11-26T13:29:06.829Z,77.94
2022-11-26T13:34:30.438Z,78.16
2022-11-26T13:39:54.516Z,77.89
2022-11-26T13:45:19.850Z,77.96
2022-11-26T13:50:42.223Z,78.08
2022-11-26T13:55:48.011Z,78.10
2022-11-26T14:00:50.326Z,77.97
2022-11-26T14:05:52.609Z,78.22
2022-11-26T14:10:54.878Z,78.00
2022-11-26T14:16:03.098Z,78.23
2022-11-26T14:21:11.854Z,78.25
2022-11-26T14:26:22.611Z,78.14
2022-11-26T14:31:28.314Z,78.09
2022-11-26T14:36:31.495Z,78.25
2022-11-26T14:42:03.788Z,78.33
2022-11-26T14:47:20.758Z,78.40
2022-11-26T14:52:26.852Z,78.50
2022-11-26T14:57:38.052Z,78.14
2022-11-26T15:02:43.272Z,78.41
2022-11-26T15:07:46.414Z,78.32
2022-11-26T15:12:50.872Z,78.45
2022-11-26T15:17:58.655Z,78.39
2022-11-26T15:23:03.015Z,78.31
2022-11-26T15:28:09.734Z,78.31
2022-11-26T15:33:17.847Z,78.38
2022-11-26T15:38:21.242Z,78.47
2022-11-26T15:43:32.652Z,78.66
2022-11-26T15:48:53.822Z,78.67
2022-11-26T15:53:56.266Z,78.55
2022-11-26T15:59:02.458Z,78.70
2022-11-26T16:04:06.691Z,78.50
2022-11-26T16:09:17.627Z,78.53
2022-11-26T16:14:35.383Z,78.37
2022-11-26T16:19:38.246Z,78.35
2022-11-26T16:24:46.088Z,78.61
2022-11-26T16:29:48.538Z,78.21
2022-11-26T16:34:50.801Z,78.73
2022-11-26T16:40:10.048Z,78.69
2022-11-26T16:45:14.708Z,78.43
2022-11-26T16:50:19.475Z,78.53
2022-11-26T16:55:27.382Z,78.27
2022-11-26T17:00:29.715Z,78.72
2022-11-26T17:05:32.040Z,78.42
2022-11-26T17:10:34.367Z,78.46
2022-11-26T17:15:36.690Z,78.60
2022-11-26T17:20:39.093Z,78.71
2022-11-26T17:25:44.069Z,78.61
2022-11-26T17:30:48.617Z,78.58
2022-11-26T17:35:51.002Z,78.61
2022-11-26T17:40:53.396Z,78.35
2022-11-26T17:45:59.498Z,78.51
2022-11-26T17:51:01.882Z,78.45
2022-11-26T17:56:04.954Z,78.30
2022-11-26T18:01:07.383Z,78.42
2022-11-26T18:06:17.632Z,78.44
2022-11-26T18:11:19.919Z,78.16
2022-11-26T18:16:22.271Z,78.42
2022-11-26T18:21:24.578Z,78.08
2022-11-26T18:26:28.487Z,78.38
2022-11-26T18:31:37.967Z,78.47
2022-11-26T18:36:42.377Z,78.36
2022-11-26T18:41:44.766Z,78.47
2022-11-26T18:46:47.186Z,78.60
2022-11-26T18:51:49.649Z,78.62
2022-11-26T18:56:52.240Z,78.70
2022-11-26T19:01:54.509Z,78.80
2022-11-26T19:06:56.866Z,78.57
2022-11-26T19:11:59.159Z,78.45
2022-11-26T19:17:01.532Z,78.36
2022-11-26T19:22:03.916Z,78.53
2022-11-26T19:27:06.157Z,78.06
2022-11-26T19:32:10.635Z,78.94
2022-11-26T19:37:12.932Z,78.34
2022-11-26T19:42:15.252Z,78.34
2022-11-26T19:47:17.584Z,78.62
2022-11-26T19:52:19.873Z,78.24
2022-11-26T19:57:22.077Z,78.57
2022-11-26T20:02:24.434Z,78.15
2022-11-26T20:07:26.818Z,78.26
2022-11-26T20:12:32.567Z,78.38
2022-11-26T20:17:34.790Z,78.38
2022-11-26T20:22:37.843Z,78.30
2022-11-26T20:27:40.332Z,78.24
2022-11-26T20:32:42.566Z,78.21
2022-11-26T20:37:44.853Z,78.44
2022-11-26T20:42:47.063Z,78.23
2022-11-26T20:47:53.487Z,78.19
2022-11-26T20:52:55.900Z,78.21
2022-11-26T20:57:59.126Z,78.00
2022-11-26T21:03:01.366Z,78.17
2022-11-26T21:08:03.821Z,78.00
2022-11-26T21:13:06.800Z,78.29
2022-11-26T21:18:09.677Z,78.30
2022-11-26T21:23:13.267Z,78.17
2022-11-26T21:28:15.616Z,78.24
2022-11-26T21:33:17.872Z,78.14
2022-11-26T21:38:23.903Z,78.29
2022-11-26T21:43:28.707Z,78.17
2022-11-26T21:48:31.459Z,78.35
2022-11-26T21:53:34.078Z,78.26
2022-11-26T21:58:37.369Z,78.22
2022-11-26T22:03:42.634Z,78.30
2022-11-26T22:08:47.594Z,78.32
2022-11-26T22:13:50.125Z,77.94
2022-11-26T22:18:53.563Z,78.07
2022-11-26T22:23:56.369Z,78.61
2022-11-26T22:28:58.837Z,78.24
2022-11-26T22:34:22.353Z,78.36
2022-11-26T22:39:24.580Z,78.43
2022-11-26T22:44:26.863Z,78.28
2022-11-26T22:49:29.144Z,77.86
2022-11-26T22:54:31.469Z,78.22
2022-11-26T22:59:33.618Z,78.31
2022-11-26T23:04:35.882Z,77.99
2022-11-26T23:09:42.457Z,78.38
2022-11-26T23:14:47.598Z,78.24
2022-11-26T23:19:49.832Z,78.24
2022-11-26T23:24:52.125Z,78.32
2022-11-26T23:29:54.538Z,78.00
2022-11-26T23:34:56.825Z,78.22
2022-11-26T23:39:59.030Z,78.48
2022-11-26T23:45:01.572Z,78.70
2022-11-26T23:50:06.378Z,78.47
2022-11-26T23:55:09.274Z,78.54
